Time;durP1;ratioP1;P1;durP2;ratioP2;P2;SDS_P1;SDS_P2;PMS_P1;PMS_P2;Temp;Humidity;BMP_temperature;BMP_pressure;BME280_temperature;BME280_humidity;BME280_pressure;Samples;Min_cycle;Max_cycle;Signal;HPM_P1;HPM_P2
2022/05/21 00:00:31;;;;;;;3.17;1.70;;;16.80;99.90;;;;;;5034837;28;20037;-53
2022/05/21 00:02:57;;;;;;;4.10;2.00;;;16.70;99.90;;;;;;5035521;28;20025;-57
2022/05/21 00:05:25;;;;;;;2.75;1.52;;;16.70;99.90;;;;;;5034104;28;20093;-56
2022/05/21 00:07:52;;;;;;;6.88;2.17;;;16.60;99.90;;;;;;5034135;28;20028;-57
2022/05/21 00:10:19;;;;;;;2.75;1.60;;;16.50;99.90;;;;;;5034181;28;20093;-57
2022/05/21 00:12:45;;;;;;;2.55;2.33;;;16.40;99.90;;;;;;5034665;28;20053;-52
2022/05/21 00:15:14;;;;;;;2.05;1.70;;;16.40;99.90;;;;;;5033958;28;20057;-53
2022/05/21 00:17:39;;;;;;;2.78;1.65;;;16.30;99.90;;;;;;5035137;28;20365;-54
2022/05/21 00:20:47;;;;;;;3.58;2.08;;;16.20;99.90;;;;;;5033877;28;20107;-52
2022/05/21 00:22:53;;;;;;;6.57;2.20;;;16.10;99.90;;;;;;5035083;28;20029;-56
2022/05/21 00:25:19;;;;;;;2.63;2.08;;;15.90;99.90;;;;;;5033714;28;20083;-55
2022/05/21 00:27:45;;;;;;;3.67;2.58;;;15.80;99.90;;;;;;5033320;28;20032;-57
2022/05/21 00:30:13;;;;;;;5.57;2.38;;;15.80;99.90;;;;;;5035029;28;20029;-56
2022/05/21 00:32:39;;;;;;;4.57;2.42;;;15.80;99.90;;;;;;5033761;28;20479;-52
2022/05/21 00:35:05;;;;;;;5.65;2.33;;;15.70;99.90;;;;;;5033564;28;20482;-57
2022/05/21 00:37:31;;;;;;;4.13;2.03;;;15.50;99.90;;;;;;5033307;28;20492;-56
2022/05/21 00:39:57;;;;;;;3.25;2.17;;;15.50;99.90;;;;;;5033312;28;20104;-56
2022/05/21 00:42:22;;;;;;;2.33;2.05;;;15.30;99.90;;;;;;5033610;28;20033;-57
2022/05/21 00:44:48;;;;;;;3.78;2.10;;;15.30;99.90;;;;;;5034505;28;20105;-53
2022/05/21 00:47:13;;;;;;;5.85;2.50;;;15.20;99.90;;;;;;5034390;28;20041;-54
2022/05/21 00:49:39;;;;;;;5.25;2.47;;;15.10;99.90;;;;;;5033383;28;20051;-55
2022/05/21 00:52:10;;;;;;;4.75;2.25;;;15.10;99.90;;;;;;5034791;28;20025;-52
2022/05/21 00:54:47;;;;;;;4.88;2.15;;;15.10;99.90;;;;;;5032993;28;20095;-51
2022/05/21 00:57:42;;;;;;;4.10;2.35;;;15.10;99.90;;;;;;5033509;28;20048;-52
2022/05/21 01:00:13;;;;;;;3.78;2.15;;;15.10;99.90;;;;;;5031345;28;20041;-54
2022/05/21 01:02:56;;;;;;;5.85;2.08;;;15.10;99.90;;;;;;5034441;28;20099;-53
2022/05/21 01:05:25;;;;;;;7.93;3.15;;;15.30;99.90;;;;;;5033022;28;20029;-55
2022/05/21 01:07:57;;;;;;;5.53;2.70;;;15.40;99.90;;;;;;5034442;28;20041;-54
2022/05/21 01:10:27;;;;;;;8.90;2.92;;;15.40;99.90;;;;;;5032846;28;20396;-50
2022/05/21 01:12:54;;;;;;;5.72;3.97;;;15.40;99.90;;;;;;5032789;28;20455;-54
2022/05/21 01:15:28;;;;;;;5.47;3.42;;;15.50;99.90;;;;;;5032611;28;20036;-53
2022/05/21 01:17:54;;;;;;;4.35;3.28;;;15.50;99.90;;;;;;5033808;28;20488;-54
2022/05/21 01:20:22;;;;;;;3.88;3.10;;;15.60;99.90;;;;;;5032558;28;20075;-54
2022/05/21 01:22:50;;;;;;;6.07;3.38;;;15.60;99.90;;;;;;5032497;28;20048;-53
2022/05/21 01:25:20;;;;;;;7.45;3.40;;;15.60;99.90;;;;;;5033709;28;20543;-51
2022/05/21 01:27:48;;;;;;;6.00;3.10;;;15.60;99.90;;;;;;5033902;28;20025;-51
2022/05/21 01:30:23;;;;;;;5.40;2.97;;;15.60;99.90;;;;;;5032436;28;20029;-54
2022/05/21 01:32:49;;;;;;;6.85;3.53;;;15.60;99.90;;;;;;5033659;28;20026;-54
2022/05/21 01:35:18;;;;;;;4.68;3.83;;;15.60;99.90;;;;;;5032178;28;20415;-51
2022/05/21 01:37:45;;;;;;;5.93;3.05;;;15.60;99.90;;;;;;5032250;28;20033;-51
2022/05/21 01:40:11;;;;;;;5.95;2.88;;;15.60;99.90;;;;;;5031666;28;20033;-52
2022/05/21 01:42:36;;;;;;;6.00;3.30;;;15.60;99.90;;;;;;5032487;28;20033;-53
2022/05/21 01:45:04;;;;;;;5.25;3.13;;;15.40;99.90;;;;;;5032043;28;20029;-55
2022/05/21 01:47:31;;;;;;;4.68;2.90;;;15.30;99.90;;;;;;5032078;28;20068;-51
2022/05/21 01:49:57;;;;;;;7.32;3.30;;;15.30;99.90;;;;;;5033224;28;20017;-50
2022/05/21 01:52:22;;;;;;;4.72;2.80;;;15.30;99.90;;;;;;5031965;28;20018;-52
2022/05/21 01:54:48;;;;;;;10.93;3.58;;;15.20;99.90;;;;;;5031855;28;20021;-51
2022/05/21 01:57:14;;;;;;;4.65;3.17;;;15.20;99.90;;;;;;5033442;28;20022;-52
2022/05/21 01:59:40;;;;;;;4.40;3.17;;;15.20;99.90;;;;;;5033497;28;20030;-51
2022/05/21 02:02:06;;;;;;;6.72;3.40;;;15.20;99.90;;;;;;5033405;28;20105;-53
2022/05/21 02:04:33;;;;;;;7.60;2.95;;;15.20;99.90;;;;;;5033322;28;20109;-55
2022/05/21 02:06:58;;;;;;;4.38;2.85;;;15.30;99.90;;;;;;5033313;28;20030;-53
2022/05/21 02:09:24;;;;;;;4.95;3.80;;;15.30;99.90;;;;;;5033516;28;20460;-54
2022/05/21 02:11:50;;;;;;;5.65;2.75;;;15.20;99.90;;;;;;5032250;28;20022;-53
2022/05/21 02:14:15;;;;;;;4.70;2.70;;;15.10;99.90;;;;;;5032951;28;20021;-51
2022/05/21 02:16:41;;;;;;;4.95;2.53;;;15.10;99.90;;;;;;5032883;28;20037;-51
2022/05/21 02:19:08;;;;;;;6.45;3.10;;;15.00;99.90;;;;;;5031931;28;20083;-51
2022/05/21 02:21:36;;;;;;;10.20;4.95;;;15.00;99.90;;;;;;5031559;28;20028;-53
2022/05/21 02:24:02;;;;;;;5.80;3.15;;;15.00;99.90;;;;;;5031816;28;20022;-53
2022/05/21 02:26:28;;;;;;;9.43;4.40;;;15.00;99.90;;;;;;5031495;28;20026;-52
2022/05/21 02:28:54;;;;;;;9.40;4.35;;;14.90;99.90;;;;;;5031507;28;20024;-50
2022/05/21 02:31:20;;;;;;;6.30;4.40;;;14.80;99.90;;;;;;5031492;28;20018;-50
2022/05/21 02:33:46;;;;;;;9.95;4.65;;;14.80;99.90;;;;;;5031512;28;20025;-51
2022/05/21 02:36:12;;;;;;;8.38;4.50;;;14.70;99.90;;;;;;5033397;28;20040;-54
2022/05/21 02:41:22;;;;;;;9.68;4.45;;;14.70;99.90;;;;;;5033273;28;20040;-52
2022/05/21 02:43:48;;;;;;;8.20;4.50;;;14.70;99.90;;;;;;5031765;28;20392;-53
2022/05/21 02:46:15;;;;;;;12.57;5.20;;;14.60;99.90;;;;;;5031551;28;20029;-50
2022/05/21 02:48:42;;;;;;;8.80;5.38;;;14.60;99.90;;;;;;5032634;28;20025;-51
2022/05/21 02:51:09;;;;;;;8.95;4.65;;;14.50;99.90;;;;;;5032512;28;20026;-53
2022/05/21 02:53:36;;;;;;;9.93;5.28;;;14.40;99.90;;;;;;5035396;28;20025;-55
2022/05/21 02:56:10;;;;;;;9.23;4.57;;;14.30;99.90;;;;;;5035133;28;20025;-53
2022/05/21 02:58:36;;;;;;;6.07;4.20;;;14.20;99.90;;;;;;5035317;28;20030;-50
2022/05/21 03:01:02;;;;;;;8.38;5.03;;;14.10;99.90;;;;;;5035216;28;20029;-52
2022/05/21 03:03:28;;;;;;;7.25;4.18;;;14.00;99.90;;;;;;5035041;28;20025;-55
2022/05/21 03:05:53;;;;;;;6.32;4.53;;;13.90;99.90;;;;;;5034883;28;20116;-51
2022/05/21 03:11:03;;;;;;;6.70;4.32;;;13.90;99.90;;;;;;5036876;28;20052;-53
2022/05/21 03:13:32;;;;;;;9.05;4.05;;;13.90;99.90;;;;;;5036779;28;20021;-51
2022/05/21 03:15:58;;;;;;;5.63;3.80;;;13.90;99.90;;;;;;5034860;28;20026;-50
2022/05/21 03:18:24;;;;;;;6.88;3.42;;;13.90;99.90;;;;;;5034723;28;20026;-51
2022/05/21 03:20:51;;;;;;;10.27;3.65;;;14.00;99.90;;;;;;5036213;28;20033;-51
2022/05/21 03:23:16;;;;;;;6.03;2.80;;;14.00;99.90;;;;;;5036339;28;20022;-50
2022/05/21 03:25:42;;;;;;;4.78;3.10;;;14.20;99.90;;;;;;5034598;28;20029;-52
2022/05/21 03:28:12;;;;;;;3.60;2.65;;;14.40;99.90;;;;;;5034700;28;20028;-53
2022/05/21 03:30:37;;;;;;;3.67;2.72;;;14.30;99.90;;;;;;5034872;28;20014;-53
2022/05/21 03:33:03;;;;;;;3.33;2.65;;;14.30;99.90;;;;;;5036080;28;20025;-57
2022/05/21 03:35:32;;;;;;;4.22;2.80;;;14.20;99.90;;;;;;5034353;28;20123;-56
2022/05/21 03:37:57;;;;;;;7.38;3.05;;;14.10;99.90;;;;;;5036069;28;20049;-50
2022/05/21 03:40:26;;;;;;;5.65;2.88;;;14.10;99.90;;;;;;5034461;28;20061;-53
2022/05/21 03:42:52;;;;;;;7.20;3.20;;;14.20;99.90;;;;;;5035640;28;20077;-53
2022/05/21 03:45:18;;;;;;;4.88;2.90;;;14.10;99.90;;;;;;5035594;28;20104;-52
2022/05/21 03:47:44;;;;;;;5.60;3.33;;;14.20;99.90;;;;;;5035228;28;20117;-52
2022/05/21 03:50:15;;;;;;;8.15;3.20;;;14.10;99.90;;;;;;5034163;28;20396;-50
2022/05/21 03:52:41;;;;;;;3.92;2.55;;;14.10;99.90;;;;;;5035038;28;20029;-57
2022/05/21 03:55:07;;;;;;;4.43;2.60;;;14.10;99.90;;;;;;5035446;28;20034;-57
2022/05/21 03:57:33;;;;;;;4.15;2.97;;;14.10;99.90;;;;;;5034464;28;20026;-56
2022/05/21 03:59:59;;;;;;;6.10;3.00;;;14.20;99.90;;;;;;5034058;28;20083;-53
2022/05/21 04:02:25;;;;;;;5.18;2.88;;;14.10;99.90;;;;;;5033939;28;20025;-50
2022/05/21 04:04:51;;;;;;;4.80;2.70;;;14.10;99.90;;;;;;5033984;28;20029;-57
2022/05/21 04:07:17;;;;;;;6.80;3.05;;;14.20;99.90;;;;;;5035191;28;20443;-55
2022/05/21 04:09:42;;;;;;;6.65;3.10;;;14.30;99.90;;;;;;5035496;28;20053;-57
2022/05/21 04:12:09;;;;;;;8.07;3.53;;;14.40;99.90;;;;;;5033911;28;20022;-56
2022/05/21 04:14:35;;;;;;;7.40;3.45;;;14.50;99.90;;;;;;5033758;28;20032;-56
2022/05/21 04:17:02;;;;;;;5.07;3.03;;;14.80;99.90;;;;;;5035319;28;20025;-56
2022/05/21 04:19:28;;;;;;;4.65;2.92;;;15.10;99.90;;;;;;5033644;28;20032;-55
2022/05/21 04:21:55;;;;;;;6.72;2.83;;;15.20;99.90;;;;;;5035102;28;20033;-52
2022/05/21 04:24:21;;;;;;;7.75;3.13;;;15.20;99.90;;;;;;5033676;28;20030;-55
2022/05/21 04:26:47;;;;;;;6.97;3.15;;;15.10;99.90;;;;;;5033597;28;20022;-50
2022/05/21 04:29:16;;;;;;;4.55;2.90;;;15.10;99.90;;;;;;5034844;28;20036;-50
2022/05/21 04:31:42;;;;;;;7.53;2.85;;;15.10;99.90;;;;;;5033738;28;20108;-54
2022/05/21 04:34:08;;;;;;;6.68;2.83;;;15.00;99.90;;;;;;5033869;28;20025;-52
2022/05/21 04:36:33;;;;;;;5.93;2.67;;;15.20;99.90;;;;;;5035386;28;20099;-51
2022/05/21 04:38:59;;;;;;;4.35;3.20;;;15.30;99.90;;;;;;5033969;28;20079;-51
2022/05/21 04:41:26;;;;;;;6.75;3.28;;;15.20;99.90;;;;;;5033989;28;20037;-53
2022/05/21 04:43:53;;;;;;;4.05;2.90;;;15.20;99.90;;;;;;5033844;28;20097;-56
2022/05/21 04:46:20;;;;;;;6.22;3.10;;;15.30;99.90;;;;;;5033684;28;20037;-57
2022/05/21 04:48:47;;;;;;;5.97;3.10;;;15.40;99.90;;;;;;5034920;28;20033;-54
2022/05/21 04:51:13;;;;;;;5.45;2.90;;;15.40;99.90;;;;;;5034018;28;20387;-54
2022/05/21 04:53:39;;;;;;;4.88;2.58;;;15.40;99.90;;;;;;5033685;28;20476;-52
2022/05/21 04:56:05;;;;;;;5.22;3.10;;;15.40;99.90;;;;;;5035039;28;20040;-53
2022/05/21 04:58:32;;;;;;;3.83;2.88;;;15.40;99.90;;;;;;5033563;28;20021;-51
2022/05/21 05:00:57;;;;;;;5.80;3.53;;;15.40;99.90;;;;;;5033515;28;20030;-50
2022/05/21 05:03:23;;;;;;;4.10;2.30;;;15.60;99.90;;;;;;5034652;28;20047;-52
2022/05/21 05:05:49;;;;;;;3.95;2.97;;;15.70;99.90;;;;;;5033564;28;20494;-56
2022/05/21 05:08:17;;;;;;;4.07;2.30;;;15.70;99.90;;;;;;5035150;28;20032;-52
2022/05/21 05:10:44;;;;;;;6.68;2.35;;;15.70;99.90;;;;;;5033604;28;20067;-51
2022/05/21 05:13:10;;;;;;;4.72;2.15;;;15.90;99.90;;;;;;5033445;28;20028;-51
2022/05/21 05:15:36;;;;;;;4.45;1.98;;;16.10;99.90;;;;;;5033668;28;20025;-56
2022/05/21 05:18:05;;;;;;;3.55;2.20;;;16.30;99.90;;;;;;5033154;28;20031;-53
2022/05/21 05:20:31;;;;;;;6.20;1.65;;;17.00;99.90;;;;;;5033135;28;20022;-56
2022/05/21 05:22:57;;;;;;;2.83;1.60;;;17.50;99.90;;;;;;5033362;28;20079;-53
2022/05/21 05:25:23;;;;;;;3.15;1.38;;;17.80;99.90;;;;;;5033031;28;20022;-52
2022/05/21 05:27:49;;;;;;;3.35;1.75;;;18.20;99.90;;;;;;5034200;28;20029;-57
2022/05/21 05:30:18;;;;;;;7.25;1.98;;;18.50;99.90;;;;;;5032916;28;20018;-53
2022/05/21 05:32:44;;;;;;;3.53;2.03;;;18.50;99.90;;;;;;5032887;28;20025;-56
2022/05/21 05:35:10;;;;;;;4.38;1.77;;;18.40;99.90;;;;;;5032690;28;20032;-56
2022/05/21 05:37:36;;;;;;;5.05;1.58;;;18.50;99.90;;;;;;5032747;28;20040;-57
2022/05/21 05:40:04;;;;;;;6.80;1.73;;;18.60;99.90;;;;;;5033001;28;20021;-58
2022/05/21 05:42:29;;;;;;;6.65;1.50;;;19.00;99.90;;;;;;5033277;28;20025;-55
2022/05/21 05:44:55;;;;;;;3.05;1.30;;;19.50;99.90;;;;;;5032713;28;20047;-54
2022/05/21 05:47:21;;;;;;;4.47;1.50;;;20.10;99.90;;;;;;5032787;28;20030;-57
2022/05/21 05:49:46;;;;;;;3.65;1.60;;;20.60;99.90;;;;;;5032703;28;20027;-57
2022/05/21 05:52:12;;;;;;;1.92;1.02;;;21.20;99.90;;;;;;5032912;28;20048;-55
2022/05/21 05:54:38;;;;;;;3.75;1.30;;;21.90;99.90;;;;;;5032651;28;20480;-57
2022/05/21 05:57:10;;;;;;;1.48;1.02;;;22.60;99.90;;;;;;5032568;28;20030;-58
2022/05/21 05:59:48;;;;;;;2.42;1.15;;;22.70;99.90;;;;;;5032505;28;20542;-57
2022/05/21 06:05:04;;;;;;;2.47;1.27;;;23.50;99.90;;;;;;5034115;28;20383;-58
2022/05/21 06:07:30;;;;;;;4.28;1.23;;;23.80;99.90;;;;;;5032332;28;20025;-57
2022/05/21 06:10:05;;;;;;;4.55;1.55;;;24.10;99.90;;;;;;5032843;28;20033;-56
2022/05/21 06:12:31;;;;;;;3.83;1.23;;;24.50;99.90;;;;;;5032586;28;20029;-58
2022/05/21 06:14:58;;;;;;;2.42;1.02;;;24.80;99.90;;;;;;5032075;28;20033;-58
2022/05/21 06:17:25;;;;;;;3.00;1.40;;;25.00;99.90;;;;;;5033152;28;20096;-58
2022/05/21 06:19:51;;;;;;;2.63;0.93;;;25.50;99.90;;;;;;5034003;28;20029;-58
2022/05/21 06:22:17;;;;;;;3.78;1.58;;;25.90;99.90;;;;;;5032187;28;20055;-59
2022/05/21 06:24:42;;;;;;;4.93;1.20;;;26.50;99.90;;;;;;5032054;28;20029;-59
2022/05/21 06:27:08;;;;;;;5.57;1.80;;;26.80;99.90;;;;;;5031428;28;20033;-59
2022/05/21 06:29:37;;;;;;;5.85;2.17;;;27.10;99.80;;;;;;5032879;28;20018;-58
2022/05/21 06:32:07;;;;;;;2.28;1.38;;;27.10;98.30;;;;;;5033142;28;20075;-59
2022/05/21 06:34:35;;;;;;;4.05;1.20;;;27.30;97.60;;;;;;5033026;28;20025;-59
2022/05/21 06:37:05;;;;;;;3.00;1.20;;;27.70;97.00;;;;;;5031788;28;20029;-59
2022/05/21 06:39:35;;;;;;;2.13;1.10;;;27.80;95.20;;;;;;5031930;28;20025;-58
2022/05/21 06:42:01;;;;;;;3.28;1.05;;;28.10;94.40;;;;;;5032135;28;20029;-58
2022/05/21 06:44:27;;;;;;;1.70;0.95;;;28.00;94.70;;;;;;5031495;28;20132;-59
2022/05/21 06:46:53;;;;;;;1.90;1.05;;;27.80;93.00;;;;;;5033003;28;20101;-59
2022/05/21 06:49:20;;;;;;;8.02;3.58;;;27.60;93.30;;;;;;5031827;28;20079;-59
2022/05/21 06:51:45;;;;;;;5.18;1.52;;;27.20;93.30;;;;;;5031752;28;20021;-59
2022/05/21 06:54:11;;;;;;;4.22;1.90;;;27.40;93.90;;;;;;5032186;28;20021;-59
2022/05/21 06:56:39;;;;;;;3.85;1.00;;;27.20;92.10;;;;;;5032957;28;20476;-58
2022/05/21 06:59:05;;;;;;;2.85;0.98;;;27.40;92.60;;;;;;5032884;28;20025;-59
2022/05/21 07:01:31;;;;;;;1.90;1.00;;;27.40;93.50;;;;;;5033186;28;20104;-59
2022/05/21 07:03:57;;;;;;;2.75;0.93;;;26.50;93.80;;;;;;5033170;28;20068;-56
2022/05/21 07:09:06;;;;;;;3.88;0.98;;;25.30;94.70;;;;;;5033417;28;20040;-55
2022/05/21 07:11:32;;;;;;;3.05;1.10;;;25.50;94.60;;;;;;5031892;28;20029;-57
2022/05/21 07:13:58;;;;;;;2.75;0.70;;;25.70;94.60;;;;;;5031744;28;20025;-56
2022/05/21 07:16:24;;;;;;;4.65;1.38;;;26.00;94.20;;;;;;5031630;28;20021;-57
2022/05/21 07:18:50;;;;;;;2.75;1.00;;;26.10;94.90;;;;;;5031522;28;20026;-56
2022/05/21 07:21:18;;;;;;;3.30;2.00;;;25.80;95.30;;;;;;5032909;28;20081;-56
2022/05/21 07:23:44;;;;;;;6.07;1.83;;;26.80;92.60;;;;;;5031688;28;20022;-57
2022/05/21 07:26:11;;;;;;;4.65;1.23;;;28.00;92.00;;;;;;5031858;28;20026;-58
2022/05/21 07:28:37;;;;;;;1.83;0.93;;;28.80;91.80;;;;;;5031579;28;20025;-59
2022/05/21 07:31:03;;;;;;;3.00;1.00;;;29.30;91.30;;;;;;5033015;28;20022;-57
2022/05/21 07:33:28;;;;;;;1.85;0.90;;;30.00;88.30;;;;;;5031508;28;20026;-56
2022/05/21 07:35:54;;;;;;;2.30;0.90;;;30.70;84.70;;;;;;5031297;28;20061;-59
2022/05/21 07:38:19;;;;;;;2.10;1.15;;;30.90;85.00;;;;;;5034019;28;20514;-58
2022/05/21 07:41:02;;;;;;;1.80;0.90;;;31.00;80.40;;;;;;5035032;28;20032;-58
2022/05/21 07:43:30;;;;;;;3.63;0.98;;;30.30;85.40;;;;;;5035626;28;20022;-58
2022/05/21 07:45:58;;;;;;;3.75;1.02;;;29.60;82.10;;;;;;5036057;28;20021;-58
2022/05/21 07:48:25;;;;;;;2.85;1.00;;;28.60;84.60;;;;;;5034860;28;20108;-57
2022/05/21 07:50:54;;;;;;;3.72;1.38;;;27.50;85.40;;;;;;5034942;28;20021;-57
2022/05/21 07:53:22;;;;;;;3.53;0.80;;;27.20;89.10;;;;;;5034854;28;20026;-57
2022/05/21 07:55:50;;;;;;;3.03;0.95;;;27.70;87.10;;;;;;5034738;28;20044;-57
2022/05/21 07:58:16;;;;;;;3.70;1.35;;;28.50;83.00;;;;;;5035269;28;20025;-56
2022/05/21 08:00:42;;;;;;;3.83;1.05;;;29.10;81.90;;;;;;5034924;28;20025;-57
2022/05/21 08:03:08;;;;;;;3.80;0.95;;;28.50;87.20;;;;;;5035399;28;20029;-54
2022/05/21 08:05:35;;;;;;;7.22;1.70;;;27.60;85.60;;;;;;5034510;28;20022;-57
2022/05/21 08:08:01;;;;;;;4.15;1.00;;;27.30;85.90;;;;;;5034522;28;20103;-58
2022/05/21 08:10:27;;;;;;;1.95;0.57;;;27.80;89.30;;;;;;5034560;28;20053;-58
2022/05/21 08:12:53;;;;;;;1.95;0.75;;;28.20;84.10;;;;;;5035710;28;20021;-56
2022/05/21 08:15:21;;;;;;;5.30;0.95;;;27.70;84.90;;;;;;5034713;28;20045;-54
2022/05/21 08:17:46;;;;;;;2.75;1.27;;;27.00;84.50;;;;;;5035617;28;20030;-57
2022/05/21 08:20:13;;;;;;;6.07;1.40;;;26.00;88.40;;;;;;5035549;28;20083;-58
2022/05/21 08:28:08;;;;;;;4.45;1.23;;;24.70;91.40;;;;;;5035831;28;20506;-54
2022/05/21 08:30:34;;;;;;;4.55;1.20;;;24.60;92.10;;;;;;5035270;28;20021;-56
2022/05/21 08:33:02;;;;;;;1.40;0.60;;;24.10;93.00;;;;;;5035309;28;20464;-53
2022/05/21 08:35:27;;;;;;;4.28;1.15;;;24.10;91.50;;;;;;5034129;28;20031;-54
2022/05/21 08:37:53;;;;;;;8.15;1.00;;;24.20;91.50;;;;;;5035209;28;20025;-54
2022/05/21 08:40:19;;;;;;;3.13;0.82;;;24.20;92.10;;;;;;5035142;28;20026;-56
2022/05/21 08:42:55;;;;;;;3.80;1.02;;;24.90;92.80;;;;;;5033906;28;20033;-58
2022/05/21 08:45:24;;;;;;;2.47;0.70;;;25.70;92.50;;;;;;5035048;28;20029;-54
2022/05/21 08:48:02;;;;;;;6.78;1.10;;;25.50;91.80;;;;;;5035288;28;20470;-55
2022/05/21 08:50:33;;;;;;;5.55;1.13;;;24.90;92.20;;;;;;5033356;28;20079;-56
2022/05/21 08:53:06;;;;;;;4.85;0.90;;;24.50;92.50;;;;;;5034920;28;20097;-57
2022/05/21 08:55:36;;;;;;;3.65;1.20;;;23.90;93.80;;;;;;5033548;28;20484;-57
2022/05/21 08:58:09;;;;;;;3.05;1.00;;;23.50;94.80;;;;;;5033622;28;20116;-57
2022/05/21 09:00:38;;;;;;;5.13;1.15;;;23.90;94.00;;;;;;5034875;28;20033;-54
2022/05/21 09:03:09;;;;;;;3.80;1.00;;;25.30;92.70;;;;;;5033823;28;20029;-54
2022/05/21 09:05:37;;;;;;;3.08;0.95;;;27.20;90.70;;;;;;5034607;28;20025;-55
2022/05/21 09:08:03;;;;;;;4.35;1.10;;;28.70;89.00;;;;;;5049864;28;20029;-58
2022/05/21 09:11:01;;;;;;;5.15;1.20;;;29.80;85.20;;;;;;5033251;28;20026;-58
2022/05/21 09:13:44;;;;;;;3.08;1.10;;;31.10;81.20;;;;;;5034146;28;20029;-56
2022/05/21 09:19:00;;;;;;;4.55;0.95;;;32.70;75.30;;;;;;5034992;28;20028;-57
2022/05/21 09:21:28;;;;;;;5.75;1.08;;;32.50;74.60;;;;;;5034390;28;20503;-58
2022/05/21 09:23:59;;;;;;;3.60;0.77;;;32.70;71.50;;;;;;5034253;28;20027;-58
2022/05/21 09:26:46;;;;;;;3.00;1.17;;;32.20;70.30;;;;;;5049646;28;20025;-56
2022/05/21 09:29:34;;;;;;;4.38;1.05;;;30.80;72.90;;;;;;5034734;28;20026;-58
2022/05/21 09:32:19;;;;;;;6.55;1.20;;;29.60;73.90;;;;;;5034256;28;20025;-58
2022/05/21 09:34:57;;;;;;;2.85;1.13;;;28.60;75.10;;;;;;5032682;28;20057;-59
2022/05/21 09:37:28;;;;;;;6.00;1.38;;;27.60;77.60;;;;;;5034101;28;20025;-59
2022/05/21 09:39:54;;;;;;;2.72;1.00;;;27.10;80.30;;;;;;5032770;28;20029;-58
2022/05/21 09:45:37;;;;;;;4.63;1.10;;;26.20;79.40;;;;;;5034291;28;20085;-61
2022/05/21 09:48:05;;;;;;;2.65;1.15;;;25.90;80.60;;;;;;5034037;28;20036;-50
2022/05/21 09:50:46;;;;;;;2.28;0.80;;;25.70;81.20;;;;;;5032702;28;20023;-59
2022/05/21 09:53:26;;;;;;;3.65;1.60;;;26.20;82.60;;;;;;5032643;28;20021;-59
2022/05/21 09:55:58;;;;;;;2.83;0.80;;;27.20;79.60;;;;;;5032784;28;20049;-60
2022/05/21 09:58:24;;;;;;;3.63;1.05;;;27.50;76.50;;;;;;5032991;28;20112;-60
2022/05/21 10:00:56;;;;;;;3.75;1.20;;;27.30;78.60;;;;;;5032640;28;20022;-59
2022/05/21 10:03:45;;;;;;;4.45;0.80;;;26.30;79.80;;;;;;5033686;28;20029;-56
2022/05/21 10:06:32;;;;;;;4.40;0.70;;;26.70;79.10;;;;;;5033506;28;20096;-58
2022/05/21 10:11:57;;;;;;;4.55;1.17;;;28.70;74.00;;;;;;5034128;28;20572;-56
2022/05/21 10:14:30;;;;;;;4.53;1.00;;;28.70;76.20;;;;;;5033528;28;20105;-59
2022/05/21 10:17:01;;;;;;;3.30;0.93;;;28.00;76.60;;;;;;5033578;28;20030;-57
2022/05/21 10:19:27;;;;;;;;;;;27.20;77.60;;;;;;5033168;28;20036;-60
2022/05/21 10:22:39;;;;;;;7.88;1.13;;;26.30;80.80;;;;;;5048831;28;20351;-56
2022/05/21 10:25:13;;;;;;;4.30;0.98;;;25.90;82.80;;;;;;5033142;28;20037;-58
2022/05/21 10:28:08;;;;;;;6.10;0.90;;;26.30;83.10;;;;;;5032054;28;20091;-59
2022/05/21 10:31:03;;;;;;;3.97;1.20;;;27.20;84.50;;;;;;5021463;28;20087;-60
2022/05/21 10:33:40;;;;;;;1.75;0.93;;;27.70;77.20;;;;;;5033610;28;20025;-55
2022/05/21 10:36:09;;;;;;;3.17;0.75;;;27.70;78.10;;;;;;5032500;28;20061;-53
2022/05/21 10:38:50;;;;;;;3.20;0.80;;;27.30;81.50;;;;;;5033343;28;20045;-57
2022/05/21 10:41:50;;;;;;;5.63;1.00;;;26.80;79.10;;;;;;5032639;28;20025;-53
2022/05/21 10:44:32;;;;;;;3.25;0.60;;;26.40;78.80;;;;;;5034096;28;20017;-53
2022/05/21 10:47:23;;;;;;;3.05;1.00;;;26.20;78.70;;;;;;5033469;28;20036;-58
2022/05/21 10:50:08;;;;;;;3.13;1.05;;;26.30;82.30;;;;;;5019186;28;20059;-56
2022/05/21 10:53:03;;;;;;;4.90;0.80;;;26.10;85.20;;;;;;5033103;28;20043;-60
2022/05/21 10:55:44;;;;;;;2.17;0.80;;;26.10;82.10;;;;;;5031984;28;20025;-57
2022/05/21 10:58:38;;;;;;;3.80;0.73;;;25.90;81.20;;;;;;5031920;28;20033;-55
2022/05/21 11:01:29;;;;;;;2.80;0.88;;;26.20;80.20;;;;;;5031868;28;20025;-57
2022/05/21 11:03:55;;;;;;;;;;;26.20;83.80;;;;;;5033077;28;20522;-56
2022/05/21 11:06:40;;;;;;;2.67;1.00;;;25.80;82.30;;;;;;5033308;28;19913;-53
2022/05/21 11:09:28;;;;;;;5.70;1.42;;;25.70;83.10;;;;;;5032437;28;20021;-55
2022/05/21 11:12:31;;;;;;;3.35;0.90;;;25.70;84.70;;;;;;5034156;28;20037;-57
2022/05/21 11:15:05;;;;;;;1.80;0.70;;;25.70;85.40;;;;;;4995716;28;20065;-55
2022/05/21 11:17:55;;;;;;;2.47;1.00;;;25.50;88.70;;;;;;5035897;28;20035;-54
2022/05/21 11:20:40;;;;;;;3.28;0.90;;;25.40;82.70;;;;;;5035860;28;20028;-51
2022/05/21 11:23:24;;;;;;;2.15;0.60;;;25.40;81.20;;;;;;5035517;28;20025;-56
2022/05/21 11:26:32;;;;;;;1.63;0.68;;;25.20;82.70;;;;;;5035353;28;20026;-53
2022/05/21 11:29:26;;;;;;;2.10;0.75;;;25.30;83.50;;;;;;5025778;28;20033;-52
2022/05/21 11:37:40;;;;;;;3.58;0.80;;;25.30;82.30;;;;;;5037061;28;20036;-53
2022/05/21 11:40:08;;;;;;;4.43;0.90;;;25.00;83.00;;;;;;5036780;28;20028;-55
2022/05/21 11:42:35;;;;;;;2.80;0.77;;;25.20;85.60;;;;;;5035152;28;20099;-54
2022/05/21 11:45:22;;;;;;;3.58;0.80;;;25.30;84.60;;;;;;5052167;28;20033;-55
2022/05/21 11:48:14;;;;;;;1.23;0.90;;;25.40;85.20;;;;;;5035738;28;20022;-52
2022/05/21 11:50:40;;;;;;;4.18;1.00;;;25.40;86.40;;;;;;5030881;28;20026;-52
2022/05/21 11:53:39;;;;;;;1.45;0.50;;;25.30;83.70;;;;;;5036181;28;20063;-54
2022/05/21 11:56:08;;;;;;;1.52;1.02;;;24.90;83.90;;;;;;5020568;28;20030;-53
2022/05/21 11:59:08;;;;;;;1.77;0.68;;;25.00;83.00;;;;;;5034841;28;20108;-52
2022/05/21 12:01:38;;;;;;;5.22;1.13;;;25.00;85.10;;;;;;5030254;28;20038;-50
2022/05/21 12:04:04;;;;;;;1.67;0.77;;;24.90;81.60;;;;;;5034971;28;20032;-56
2022/05/21 12:06:38;;;;;;;2.15;0.70;;;24.70;82.70;;;;;;5034590;28;20052;-51
2022/05/21 12:09:25;;;;;;;1.35;0.57;;;24.60;85.80;;;;;;5036252;28;20064;-52
2022/05/21 12:12:11;;;;;;;4.50;0.90;;;24.70;84.00;;;;;;5034868;28;20021;-54
2022/05/21 12:14:54;;;;;;;3.05;0.85;;;24.70;83.00;;;;;;5035490;28;20021;-50
2022/05/21 12:18:02;;;;;;;3.38;0.80;;;24.70;85.20;;;;;;5035882;28;20029;-51
2022/05/21 12:20:46;;;;;;;5.50;0.85;;;24.80;84.50;;;;;;5035618;28;20040;-53
2022/05/21 12:23:34;;;;;;;2.20;0.82;;;24.80;84.80;;;;;;5035098;28;20025;-52
2022/05/21 12:26:08;;;;;;;5.03;1.20;;;24.80;87.20;;;;;;5035411;28;20159;-54
2022/05/21 12:29:15;;;;;;;1.23;0.60;;;24.60;86.40;;;;;;5035138;28;20108;-54
2022/05/21 12:31:45;;;;;;;2.63;0.80;;;24.60;85.10;;;;;;5008723;28;20057;-54
2022/05/21 12:34:20;;;;;;;3.00;0.70;;;24.60;85.10;;;;;;5035236;28;20025;-52
2022/05/21 12:37:01;;;;;;;3.03;1.00;;;24.60;85.90;;;;;;5035293;28;20396;-55
2022/05/21 12:40:00;;;;;;;2.90;0.60;;;24.60;82.90;;;;;;5035353;28;20030;-54
2022/05/21 12:43:00;;;;;;;6.63;0.95;;;24.60;85.30;;;;;;5035295;28;20029;-53
2022/05/21 12:45:47;;;;;;;3.42;0.93;;;24.50;84.40;;;;;;5033844;28;20087;-51
2022/05/21 12:48:29;;;;;;;5.07;1.05;;;24.40;84.60;;;;;;5035174;28;20148;-52
2022/05/21 12:51:00;;;;;;;2.85;0.80;;;24.60;85.10;;;;;;5035087;28;20024;-56
2022/05/21 12:53:36;;;;;;;3.55;0.90;;;24.70;81.90;;;;;;5035041;28;20057;-53
2022/05/21 12:56:29;;;;;;;2.80;0.98;;;24.40;83.80;;;;;;5035182;28;20045;-53
2022/05/21 12:59:22;;;;;;;2.05;0.82;;;24.40;86.90;;;;;;5035022;28;20013;-54
2022/05/21 13:01:57;;;;;;;4.47;0.93;;;24.50;86.50;;;;;;5033570;28;20022;-55
2022/05/21 13:04:38;;;;;;;3.03;1.00;;;24.50;87.10;;;;;;5033819;28;20124;-53
2022/05/21 13:07:04;;;;;;;;;;;24.40;84.70;;;;;;5035142;28;20104;-53
2022/05/21 13:09:31;;;;;;;2.28;1.08;;;24.40;82.90;;;;;;5050139;28;19940;-56
2022/05/21 13:11:57;;;;;;;5.25;0.75;;;24.40;84.80;;;;;;5034742;28;20056;-57
2022/05/21 13:14:33;;;;;;;2.47;0.90;;;24.40;86.60;;;;;;5033297;28;20064;-57
2022/05/21 13:17:00;;;;;;;2.65;0.60;;;24.30;87.50;;;;;;5035045;28;20030;-54
2022/05/21 13:19:40;;;;;;;2.90;0.73;;;24.10;88.50;;;;;;5034828;28;20025;-54
2022/05/21 13:22:25;;;;;;;2.72;0.65;;;24.10;84.60;;;;;;5033428;28;20068;-52
2022/05/21 13:25:00;;;;;;;3.25;0.80;;;24.30;84.70;;;;;;5033976;28;20116;-55
2022/05/21 13:27:26;;;;;;;4.18;0.98;;;24.40;89.30;;;;;;5033079;28;20040;-50
2022/05/21 13:30:35;;;;;;;3.13;1.15;;;24.40;91.70;;;;;;5033961;28;20079;-48
2022/05/21 13:33:04;;;;;;;4.55;1.15;;;24.30;87.00;;;;;;5034746;28;20030;-48
2022/05/21 13:35:38;;;;;;;3.33;0.90;;;24.10;87.10;;;;;;5032139;28;20025;-47
2022/05/21 13:38:13;;;;;;;3.90;0.98;;;24.20;87.30;;;;;;5033192;28;20029;-50
2022/05/21 13:40:49;;;;;;;3.00;0.57;;;24.10;88.50;;;;;;5034254;28;20097;-46